全部
Canowindra Hospital Airport (New South Wales) YXAO 天气
There is no TAF data available at YXAO. Showing TAF data for YORG (29 mi E).
OAG终端机场天气预报(YXAO无数据)
| Here is the undecoded forecast: 2026/05/04 19:41 YORG 041941Z 0420/0508 25006KT 9999 MIFG NSC FM042300 23010KT 9999 NSW SCT010 FM050200 23011KT 9999 SCT020 PROB40 0420/0422 0300 FG BKN001 RMK T 04 10 13 14 Q 1019 1021 1021 1020 |
There is no METAR data available at YXAO. Showing METAR data for YCWR (20 mi S).
CWT近期METAR历史数据(YXAO无数据)
| Date | Time (AEST) | Flight Rules | Wind Dir. | Speed | Type | Height AGL (ft) | Visibility | Temp (°C) | Temp (°F) | Dew Point (°C) | Dew Point (°F) | Rel. Humid. | Pressure | Density Altitude | Remarks |
|---|---|---|---|---|---|---|---|---|---|---|---|---|---|---|---|
| 05-五月 | 07:00 | n/a | 300° | 3 kt | Missing | 8° | 46° | 8° | 46° | 100% | 1020 mb | -75 ft | |||
| 05-五月 | 06:00 | n/a | Calm | Missing | 9° | 48° | 9° | 48° | 100% | 1019 mb | 75 ft | ||||
| 05-五月 | 05:00 | n/a | 10° | 3 kt | Missing | 9° | 48° | 9° | 48° | 100% | 1019 mb | 75 ft | |||
| 05-五月 | 04:00 | n/a | 350° | 5 kt | Missing | 9° | 48° | 9° | 48° | 100% | 1018 mb | 104 ft | |||
| 05-五月 | 03:00 | n/a | 360° | 4 kt | Missing | 9° | 48° | 9° | 48° | 100% | 1018 mb | 104 ft | |||
| 05-五月 | 02:00 | n/a | 360° | 3 kt | Missing | 9° | 48° | 9° | 48° | 100% | 1019 mb | 75 ft | |||
| 05-五月 | 01:00 | n/a | Calm | Missing | 10° | 50° | 10° | 50° | 100% | 1019 mb | 195 ft | ||||
| 05-五月 | 00:00 | n/a | Calm | Missing | 10° | 50° | 10° | 50° | 100% | 1019 mb | 195 ft | ||||
| 04-五月 | 23:00 | n/a | Calm | Missing | 10° | 50° | 10° | 50° | 100% | 1019 mb | 195 ft | ||||
| 04-五月 | 22:00 | n/a | Calm | Missing | 12° | 53° | 11° | 51° | 94% | 1019 mb | 435 ft | ||||
| 04-五月 | 21:00 | n/a | 330° | 3 kt | Missing | 13° | 55° | 12° | 53° | 94% | 1018 mb | 584 ft | |||
| 04-五月 | 20:00 | n/a | 50° | 3 kt | Missing | 13° | 55° | 11° | 51° | 88% | 1018 mb | 584 ft | |||
| 04-五月 | 19:00 | n/a | Calm | Missing | 13° | 55° | 12° | 53° | 94% | 1018 mb | 584 ft | ||||
| 04-五月 | 18:00 | n/a | 80° | 1 kt | Missing | 14° | 57° | 12° | 53° | 88% | 1017 mb | 734 ft | |||
| 04-五月 | 17:00 | n/a | 230° | 5 kt | Missing | 13° | 55° | 11° | 51° | 88% | 1016 mb | 644 ft | |||
| 04-五月 | 16:00 | n/a | 200° | 6 kt | Missing | 14° | 57° | 12° | 53° | 88% | 1016 mb | 764 ft | |||
| 04-五月 | 15:00 | n/a | 230° | 10 kt | Missing | 15° | 59° | 13° | 55° | 88% | 1015 mb | 913 ft | |||
| 04-五月 | 14:00 | n/a | 300° | 7 kt | Missing | 17° | 62° | 15° | 59° | 88% | 1015 mb | 1,153 ft | |||
| 04-五月 | 13:00 | n/a | 340° | 8 kt | Missing | 18° | 64° | 15° | 59° | 83% | 1015 mb | 1,273 ft | |||
| 04-五月 | 12:00 | n/a | 340° | 7 kt | Missing | 19° | 66° | 16° | 60° | 83% | 1016 mb | 1,364 ft | |||
| 04-五月 | 11:00 | n/a | 320° | 9 kt | Missing | 19° | 66° | 17° | 62° | 88% | 1016 mb | 1,364 ft | |||
| 04-五月 | 10:00 | n/a | 350° | 10 kt | Missing | 18° | 64° | 16° | 60° | 88% | 1016 mb | 1,244 ft | |||
| 04-五月 | 09:00 | n/a | 10° | 7 kt | Missing | 16° | 60° | 15° | 59° | 94% | 1017 mb | 974 ft | |||
| 04-五月 | 08:00 | n/a | 330° | 5 kt | Missing | 16° | 60° | 16° | 60° | 100% | 1017 mb | 974 ft |
登录
| 您的浏览器不支持. 升级您的浏览器 |
